Jameson, Missouri
Current Conditions -  °F | °C
As of 8:00 AM on Sunday 23 Nov 2014 (Local Time) from KLWD Reporting Station
Haze Haze  
Wind Chill: 50°   Ceiling: 200
Heat Index: 50°   Visibility: 1.2mi
Dew Point: 50°   Wind: 6mph
Humidity: 100%   Direction: 160°SSE
Pressure: 29.53"   Gusts: NA
Location:  40.01°N, 93.98°W
Report Text: KLWD 231400Z AUTO 16005KT 1 1/4SM BR OVC002 10/10 A2953 RMK AO2 T01000100
Loading
Personal Weather Stations






























Interactive Weather Map New forecast layout! Learn more

10-Day Weather Forecast

Advertisements
Track Severe Weather on mobile